createdAt,value
2023-05-05T00:01:08.885Z,50.40
2023-05-05T00:03:35.741Z,50.43
2023-05-05T00:06:02.765Z,50.27
2023-05-05T00:08:29.234Z,50.35
2023-05-05T00:10:56.434Z,50.23
2023-05-05T00:13:23.308Z,50.19
2023-05-05T00:15:51.727Z,50.17
2023-05-05T00:18:19.365Z,50.01
2023-05-05T00:20:47.191Z,50.16
2023-05-05T00:23:14.343Z,49.95
2023-05-05T00:25:40.998Z,50.33
2023-05-05T00:28:07.470Z,50.27
2023-05-05T00:30:34.651Z,50.37
2023-05-05T00:33:01.497Z,50.31
2023-05-05T00:35:28.685Z,50.31
2023-05-05T00:37:55.331Z,50.25
2023-05-05T00:40:21.984Z,50.58
2023-05-05T00:42:50.813Z,50.30
2023-05-05T00:45:19.425Z,50.46
2023-05-05T00:47:52.432Z,50.08
2023-05-05T00:50:30.090Z,50.46
2023-05-05T00:53:00.643Z,50.49
2023-05-05T00:55:28.481Z,50.31
2023-05-05T00:57:57.127Z,50.34
2023-05-05T01:00:23.802Z,50.59
2023-05-05T01:02:51.878Z,50.49
2023-05-05T01:05:20.036Z,50.33
2023-05-05T01:08:03.011Z,50.28
2023-05-05T01:10:38.179Z,50.36
2023-05-05T01:13:13.830Z,50.52
2023-05-05T01:15:51.739Z,50.41
2023-05-05T01:18:42.030Z,50.45
2023-05-05T01:21:23.217Z,50.50
2023-05-05T01:24:06.946Z,50.48
2023-05-05T01:26:52.465Z,50.33
2023-05-05T01:29:37.281Z,50.63
2023-05-05T01:32:14.852Z,50.33
2023-05-05T01:34:53.634Z,50.72
2023-05-05T01:37:26.921Z,50.68
2023-05-05T01:39:59.185Z,50.42
2023-05-05T01:42:27.752Z,50.61
2023-05-05T01:44:54.520Z,50.54
2023-05-05T01:47:22.716Z,50.75
2023-05-05T01:49:50.269Z,50.54
2023-05-05T01:52:18.251Z,50.62
2023-05-05T01:54:46.545Z,50.76
2023-05-05T01:57:14.788Z,50.71
2023-05-05T01:59:41.657Z,50.69
2023-05-05T02:02:11.207Z,50.60
2023-05-05T02:04:42.435Z,50.62
2023-05-05T02:07:11.536Z,50.80
2023-05-05T02:09:39.255Z,50.74
2023-05-05T02:12:07.112Z,50.67
2023-05-05T02:14:34.659Z,50.72
2023-05-05T02:17:01.838Z,50.63
2023-05-05T02:19:42.924Z,50.75
2023-05-05T02:22:10.472Z,50.90
2023-05-05T02:24:37.256Z,50.98
2023-05-05T02:27:07.236Z,50.74
2023-05-05T02:29:45.867Z,50.78
2023-05-05T02:32:20.328Z,50.79
2023-05-05T02:34:49.813Z,51.03
2023-05-05T02:37:21.474Z,51.08
2023-05-05T02:40:00.210Z,50.82
2023-05-05T02:42:34.948Z,50.92
2023-05-05T02:45:10.024Z,51.06
2023-05-05T02:47:39.969Z,51.15
2023-05-05T02:50:08.942Z,51.10
2023-05-05T02:52:38.375Z,51.13
2023-05-05T02:55:06.457Z,51.05
2023-05-05T02:57:44.580Z,51.29
2023-05-05T03:00:22.766Z,50.98
2023-05-05T03:03:05.467Z,51.25
2023-05-05T03:05:43.831Z,51.30
2023-05-05T03:08:16.817Z,51.32
2023-05-05T03:10:56.430Z,51.54
2023-05-05T03:13:26.315Z,51.61
2023-05-05T03:15:54.691Z,51.48
2023-05-05T03:18:25.017Z,51.57
2023-05-05T03:20:59.031Z,51.49
2023-05-05T03:23:25.748Z,51.50
2023-05-05T03:25:57.101Z,51.61
2023-05-05T03:28:33.645Z,51.45
2023-05-05T03:31:05.751Z,51.62
2023-05-05T03:33:34.966Z,51.66
2023-05-05T03:36:01.447Z,51.61
2023-05-05T03:38:28.111Z,51.71
2023-05-05T03:40:55.701Z,51.72
2023-05-05T03:43:25.635Z,51.67
2023-05-05T03:45:52.255Z,51.63
2023-05-05T03:48:19.292Z,51.68
2023-05-05T03:50:46.213Z,51.81
2023-05-05T03:53:13.981Z,51.78
2023-05-05T03:55:41.945Z,51.95
2023-05-05T03:58:08.351Z,52.03
2023-05-05T04:00:34.788Z,51.90
2023-05-05T04:03:01.383Z,52.03
2023-05-05T04:05:27.915Z,51.95
2023-05-05T04:07:54.437Z,51.95
2023-05-05T04:10:21.490Z,52.04
2023-05-05T04:12:48.200Z,51.92
2023-05-05T04:15:14.787Z,52.11
2023-05-05T04:17:41.520Z,52.15
2023-05-05T04:20:09.293Z,52.15
2023-05-05T04:22:36.125Z,52.13
2023-05-05T04:25:02.793Z,52.11
2023-05-05T04:27:30.319Z,52.07
2023-05-05T04:29:58.057Z,52.23
2023-05-05T04:32:24.843Z,52.23
2023-05-05T04:34:51.762Z,52.30
2023-05-05T04:37:18.541Z,52.22
2023-05-05T04:39:45.532Z,52.32
2023-05-05T04:42:12.129Z,52.18
2023-05-05T04:44:39.294Z,52.33
2023-05-05T04:47:05.852Z,52.40
2023-05-05T04:49:32.336Z,52.37
2023-05-05T04:51:58.809Z,52.39
2023-05-05T04:54:25.550Z,52.48
2023-05-05T04:56:52.037Z,52.65
2023-05-05T04:59:18.521Z,52.51
2023-05-05T05:01:45.928Z,52.74
2023-05-05T05:04:12.798Z,52.77
2023-05-05T05:06:39.428Z,52.85
2023-05-05T05:09:05.845Z,52.87
2023-05-05T05:11:32.310Z,52.90
2023-05-05T05:13:59.836Z,52.99
2023-05-05T05:16:26.731Z,52.92
2023-05-05T05:18:53.293Z,53.00
2023-05-05T05:21:20.458Z,53.01
2023-05-05T05:23:47.288Z,52.96
2023-05-05T05:26:13.769Z,53.03
2023-05-05T05:28:41.551Z,53.10
2023-05-05T05:31:08.009Z,52.86
2023-05-05T05:33:34.712Z,52.98
2023-05-05T05:36:01.212Z,52.89
2023-05-05T05:38:27.695Z,53.25
2023-05-05T05:40:57.697Z,53.15
2023-05-05T05:43:24.948Z,53.04
2023-05-05T05:45:51.961Z,52.96
2023-05-05T05:48:19.962Z,53.13
2023-05-05T05:50:46.524Z,53.00
2023-05-05T05:53:13.542Z,53.19
2023-05-05T05:55:40.063Z,53.26
2023-05-05T05:58:07.057Z,53.09
2023-05-05T06:00:33.529Z,53.39
2023-05-05T06:03:05.767Z,53.18
2023-05-05T06:05:35.643Z,53.16
2023-05-05T06:08:02.071Z,53.73
2023-05-05T06:10:30.247Z,53.28
2023-05-05T06:13:01.850Z,53.67
2023-05-05T06:15:30.816Z,53.66
2023-05-05T06:17:57.321Z,53.78
2023-05-05T06:20:23.892Z,54.03
2023-05-05T06:22:50.757Z,53.81
2023-05-05T06:25:17.454Z,53.85
2023-05-05T06:27:44.918Z,54.13
2023-05-05T06:30:11.824Z,53.93
2023-05-05T06:32:38.286Z,53.73
2023-05-05T06:35:05.147Z,53.98
2023-05-05T06:37:31.554Z,54.06
2023-05-05T06:39:57.963Z,53.91
2023-05-05T06:42:24.395Z,53.97
2023-05-05T06:44:52.705Z,54.06
2023-05-05T06:47:19.212Z,53.86
2023-05-05T06:49:45.610Z,53.85
2023-05-05T06:52:12.609Z,53.75
2023-05-05T06:54:39.020Z,53.72
2023-05-05T06:57:05.757Z,53.99
2023-05-05T06:59:32.384Z,53.92
2023-05-05T07:01:59.245Z,54.08
2023-05-05T07:04:26.715Z,54.10
2023-05-05T07:06:55.116Z,54.35
2023-05-05T07:09:21.854Z,54.34
2023-05-05T07:11:48.289Z,54.33
2023-05-05T07:14:14.721Z,54.59
2023-05-05T07:16:41.417Z,54.49
2023-05-05T07:19:07.914Z,54.45
2023-05-05T07:21:34.573Z,54.50
2023-05-05T07:24:02.985Z,54.53
2023-05-05T07:26:29.529Z,54.56
2023-05-05T07:28:57.242Z,54.66
2023-05-05T07:31:23.710Z,54.54
2023-05-05T07:33:50.253Z,54.60
2023-05-05T07:36:17.995Z,54.64
2023-05-05T07:38:44.552Z,54.76
2023-05-05T07:41:13.819Z,54.60
2023-05-05T07:43:44.615Z,54.58
2023-05-05T07:46:11.824Z,54.50
2023-05-05T07:48:41.548Z,54.53
2023-05-05T07:51:08.480Z,54.11
2023-05-05T07:53:34.948Z,54.30
2023-05-05T07:56:01.482Z,54.00
2023-05-05T07:58:27.995Z,54.08
2023-05-05T08:00:54.453Z,53.97
2023-05-05T08:03:24.298Z,54.00
2023-05-05T08:05:55.740Z,53.90
2023-05-05T08:08:26.884Z,53.88
2023-05-05T08:10:53.505Z,53.75
2023-05-05T08:13:20.106Z,53.84
2023-05-05T08:15:46.868Z,53.58
2023-05-05T08:18:14.672Z,53.62
2023-05-05T08:20:41.210Z,53.42
2023-05-05T08:23:07.651Z,53.54
2023-05-05T08:25:34.058Z,53.45
2023-05-05T08:28:00.805Z,53.32
2023-05-05T08:30:27.512Z,53.44
2023-05-05T08:32:53.965Z,53.26
2023-05-05T08:35:20.707Z,53.30
2023-05-05T08:37:47.129Z,53.29
2023-05-05T08:40:14.369Z,53.09
2023-05-05T08:42:41.970Z,53.21
2023-05-05T08:45:10.179Z,53.23
2023-05-05T08:47:38.211Z,53.22
2023-05-05T08:50:05.887Z,53.11
2023-05-05T08:52:39.892Z,53.04
2023-05-05T08:55:24.023Z,52.98
2023-05-05T08:57:58.293Z,53.04
2023-05-05T09:00:26.906Z,53.02
2023-05-05T09:02:56.566Z,52.98
2023-05-05T09:05:23.816Z,53.05
2023-05-05T09:07:50.603Z,53.22
2023-05-05T09:10:17.287Z,52.88
2023-05-05T09:12:44.150Z,52.89
2023-05-05T09:15:12.537Z,52.87
2023-05-05T09:17:40.098Z,53.05
2023-05-05T09:20:07.372Z,53.01
2023-05-05T09:22:42.175Z,52.63
2023-05-05T09:25:10.951Z,52.74
2023-05-05T09:27:48.706Z,52.58
2023-05-05T09:30:23.707Z,52.51
2023-05-05T09:32:52.942Z,52.48
2023-05-05T09:35:20.756Z,52.21
2023-05-05T09:37:47.247Z,52.32
2023-05-05T09:40:15.654Z,52.34
2023-05-05T09:42:42.388Z,52.34
2023-05-05T09:45:27.685Z,51.95
2023-05-05T09:47:59.209Z,51.99
2023-05-05T09:50:30.012Z,51.99
2023-05-05T09:52:57.454Z,51.92
2023-05-05T09:55:24.522Z,51.89
2023-05-05T09:57:51.308Z,51.83
2023-05-05T10:00:18.104Z,51.71
2023-05-05T10:02:45.311Z,51.58
2023-05-05T10:05:14.250Z,51.55
2023-05-05T10:07:42.806Z,51.39
2023-05-05T10:10:12.266Z,51.38
2023-05-05T10:12:39.768Z,51.33
2023-05-05T10:15:12.004Z,51.14
2023-05-05T10:18:02.360Z,50.95
2023-05-05T10:20:33.365Z,50.96
2023-05-05T10:23:02.431Z,50.83
2023-05-05T10:25:31.432Z,50.91
2023-05-05T10:28:01.335Z,50.66
2023-05-05T10:30:32.637Z,50.69
2023-05-05T10:35:53.719Z,50.63
2023-05-05T10:38:20.759Z,50.86
2023-05-05T10:40:48.793Z,50.87
2023-05-05T10:43:15.780Z,50.78
2023-05-05T10:45:43.157Z,50.85
2023-05-05T10:48:18.644Z,50.59
2023-05-05T10:50:51.110Z,50.49
2023-05-05T10:53:28.348Z,50.35
2023-05-05T10:56:13.267Z,50.26
2023-05-05T10:58:55.375Z,50.30
2023-05-05T11:01:34.154Z,50.39
2023-05-05T11:04:17.138Z,50.33
2023-05-05T11:07:09.799Z,50.64
2023-05-05T11:09:55.129Z,50.52
2023-05-05T11:12:21.889Z,50.54
2023-05-05T11:14:48.304Z,50.22
2023-05-05T11:17:56.823Z,50.15
2023-05-05T11:20:35.872Z,50.27
2023-05-05T11:23:02.285Z,50.34
2023-05-05T11:25:34.461Z,50.15
2023-05-05T11:28:14.489Z,50.17
2023-05-05T11:30:59.795Z,50.11
2023-05-05T11:33:37.511Z,49.96
2023-05-05T11:36:09.157Z,50.07
2023-05-05T11:39:05.101Z,50.15
2023-05-05T11:41:34.397Z,49.93
2023-05-05T11:44:14.526Z,50.34
2023-05-05T11:46:50.759Z,50.17
2023-05-05T11:49:27.317Z,50.08
2023-05-05T11:52:00.439Z,50.18
2023-05-05T11:54:27.662Z,49.98
2023-05-05T11:56:55.996Z,49.78
2023-05-05T11:59:22.673Z,49.79
2023-05-05T12:01:49.140Z,49.57
2023-05-05T12:04:16.269Z,49.58
2023-05-05T12:06:43.392Z,49.40
2023-05-05T12:09:20.999Z,49.30
2023-05-05T12:11:55.331Z,49.19
2023-05-05T12:14:22.544Z,49.22
2023-05-05T12:16:55.932Z,49.20
2023-05-05T12:19:23.040Z,49.04
2023-05-05T12:21:49.522Z,48.98
2023-05-05T12:24:16.733Z,48.88
2023-05-05T12:26:43.180Z,48.94
2023-05-05T12:29:09.645Z,48.79
2023-05-05T12:31:41.104Z,49.22
2023-05-05T12:34:10.165Z,49.26
2023-05-05T12:36:37.501Z,49.26
2023-05-05T12:39:05.062Z,48.85
2023-05-05T12:41:32.377Z,48.90
2023-05-05T12:44:00.836Z,48.86
2023-05-05T12:46:29.731Z,48.62
2023-05-05T12:49:05.094Z,48.55
2023-05-05T12:51:33.070Z,48.81
2023-05-05T12:54:13.743Z,48.73
2023-05-05T12:56:42.208Z,48.79
2023-05-05T12:59:10.390Z,48.85
2023-05-05T13:01:55.270Z,49.00
2023-05-05T13:04:27.239Z,48.91
2023-05-05T13:07:12.105Z,48.92
2023-05-05T13:09:38.754Z,49.16
2023-05-05T13:12:07.097Z,49.02
2023-05-05T13:14:34.478Z,49.00
2023-05-05T13:17:01.020Z,48.98
2023-05-05T13:19:27.782Z,49.23
2023-05-05T13:21:55.541Z,49.17
2023-05-05T13:24:31.596Z,49.18
2023-05-05T13:27:03.192Z,49.26
2023-05-05T13:29:31.618Z,49.27
2023-05-05T13:31:58.536Z,49.34
2023-05-05T13:34:24.992Z,49.50
2023-05-05T13:36:51.916Z,49.31
2023-05-05T13:39:18.682Z,49.30
2023-05-05T13:41:45.402Z,49.47
2023-05-05T13:44:13.574Z,49.18
2023-05-05T13:46:41.484Z,49.22
2023-05-05T13:49:08.230Z,49.31
2023-05-05T13:51:34.845Z,49.10
2023-05-05T13:54:01.815Z,49.13
2023-05-05T13:56:28.534Z,48.97
2023-05-05T13:58:55.085Z,48.90
2023-05-05T14:01:21.560Z,49.03
2023-05-05T14:03:48.083Z,48.92
2023-05-05T14:06:17.872Z,48.78
2023-05-05T14:08:44.371Z,48.97
2023-05-05T14:11:10.814Z,48.79
2023-05-05T14:13:37.267Z,49.16
2023-05-05T14:16:03.895Z,48.87
2023-05-05T14:18:30.375Z,48.57
2023-05-05T14:20:57.225Z,48.54
2023-05-05T14:23:23.736Z,48.61
2023-05-05T14:25:50.144Z,48.33
2023-05-05T14:28:16.544Z,48.50
2023-05-05T14:30:43.301Z,48.97
2023-05-05T14:33:10.124Z,48.57
2023-05-05T14:35:36.517Z,48.44
2023-05-05T14:38:02.940Z,48.65
2023-05-05T14:40:30.225Z,48.74
2023-05-05T14:42:57.681Z,49.25
2023-05-05T14:45:24.152Z,49.13
2023-05-05T14:47:50.640Z,49.10
2023-05-05T14:50:17.130Z,49.19
2023-05-05T14:52:44.424Z,49.56
2023-05-05T14:55:11.262Z,49.36
2023-05-05T14:57:38.623Z,49.42
2023-05-05T15:00:06.843Z,49.60
2023-05-05T15:02:33.774Z,49.84
2023-05-05T15:05:00.317Z,49.60
2023-05-05T15:07:28.508Z,49.70
2023-05-05T15:09:58.554Z,49.84
2023-05-05T15:12:25.949Z,49.78
2023-05-05T15:14:52.592Z,49.93
2023-05-05T15:17:19.270Z,49.62
2023-05-05T15:19:46.105Z,49.79
2023-05-05T15:22:12.514Z,49.91
2023-05-05T15:24:39.010Z,50.13
2023-05-05T15:27:05.516Z,50.00
2023-05-05T15:29:31.962Z,50.12
2023-05-05T15:31:58.555Z,50.22
2023-05-05T15:34:25.117Z,50.21
2023-05-05T15:36:51.550Z,50.10
2023-05-05T15:39:18.017Z,50.32
2023-05-05T15:41:44.560Z,50.05
2023-05-05T15:44:13.877Z,50.53
2023-05-05T15:46:41.118Z,50.18
2023-05-05T15:49:07.654Z,50.34
2023-05-05T15:51:34.080Z,50.53
2023-05-05T15:54:00.545Z,50.37
2023-05-05T15:56:27.526Z,50.61
2023-05-05T15:58:54.279Z,50.49
2023-05-05T16:01:21.052Z,50.67
2023-05-05T16:03:47.540Z,50.60
2023-05-05T16:06:14.064Z,50.58
2023-05-05T16:08:41.115Z,50.64
2023-05-05T16:11:07.563Z,50.63
2023-05-05T16:13:34.063Z,50.63
2023-05-05T16:16:00.890Z,50.51
2023-05-05T16:18:27.315Z,50.66
2023-05-05T16:20:53.775Z,50.40
2023-05-05T16:23:20.182Z,50.66
2023-05-05T16:25:46.602Z,50.43
2023-05-05T16:28:13.042Z,50.16
2023-05-05T16:30:39.855Z,50.45
2023-05-05T16:33:06.816Z,50.27
2023-05-05T16:35:33.516Z,50.62
2023-05-05T16:38:00.137Z,50.34
2023-05-05T16:40:26.721Z,50.23
2023-05-05T16:42:53.181Z,50.41
2023-05-05T16:45:19.584Z,50.57
2023-05-05T16:47:46.043Z,50.37
2023-05-05T16:50:12.581Z,50.20
2023-05-05T16:52:39.426Z,50.25
2023-05-05T16:55:06.280Z,50.45
2023-05-05T16:57:32.929Z,50.25
2023-05-05T16:59:59.529Z,50.35
2023-05-05T17:02:26.063Z,50.19
2023-05-05T17:04:53.096Z,50.21
2023-05-05T17:07:19.682Z,49.99
2023-05-05T17:09:46.072Z,50.33
2023-05-05T17:12:12.514Z,50.34
2023-05-05T17:14:39.583Z,50.13
2023-05-05T17:17:06.129Z,50.32
2023-05-05T17:19:32.601Z,50.17
2023-05-05T17:21:59.145Z,50.14
2023-05-05T17:24:25.668Z,50.35
2023-05-05T17:26:52.079Z,49.94
2023-05-05T17:29:22.998Z,50.19
2023-05-05T17:31:50.580Z,50.29
2023-05-05T17:34:17.148Z,50.50
2023-05-05T17:36:43.559Z,50.14
2023-05-05T17:39:11.345Z,50.26
2023-05-05T17:41:37.748Z,50.36
2023-05-05T17:44:04.329Z,50.11
2023-05-05T17:46:30.736Z,50.36
2023-05-05T17:48:57.290Z,50.34
2023-05-05T17:51:23.803Z,50.12
2023-05-05T17:53:50.224Z,50.14
2023-05-05T17:56:17.050Z,50.39
2023-05-05T17:58:43.602Z,50.35
2023-05-05T18:01:13.544Z,50.48
2023-05-05T18:03:40.974Z,50.14
2023-05-05T18:06:07.692Z,50.26
2023-05-05T18:08:34.112Z,50.40
2023-05-05T18:11:01.819Z,50.61
2023-05-05T18:13:28.249Z,50.39
2023-05-05T18:15:54.700Z,50.50
2023-05-05T18:18:21.289Z,50.67
2023-05-05T18:20:47.860Z,50.52
2023-05-05T18:23:14.334Z,50.65
2023-05-05T18:25:41.512Z,50.60
2023-05-05T18:28:08.364Z,50.58
2023-05-05T18:30:35.878Z,50.61
2023-05-05T18:33:02.408Z,50.73
2023-05-05T18:35:29.181Z,50.79
2023-05-05T18:37:55.778Z,50.81
2023-05-05T18:40:22.742Z,50.76
2023-05-05T18:42:49.612Z,50.72
2023-05-05T18:45:16.107Z,50.73
2023-05-05T18:47:42.597Z,50.77
2023-05-05T18:50:09.965Z,50.71
2023-05-05T18:52:36.416Z,50.77
2023-05-05T18:55:03.027Z,50.79
2023-05-05T18:57:29.710Z,50.85
2023-05-05T18:59:56.351Z,51.01
2023-05-05T19:02:22.868Z,50.82
2023-05-05T19:04:49.385Z,50.83
2023-05-05T19:07:27.491Z,50.87
2023-05-05T19:09:58.085Z,50.86
2023-05-05T19:12:24.587Z,50.78
2023-05-05T19:14:51.134Z,50.78
2023-05-05T19:17:17.547Z,50.92
2023-05-05T19:19:43.995Z,50.94
2023-05-05T19:22:10.436Z,50.75
2023-05-05T19:24:36.877Z,50.88
2023-05-05T19:27:03.835Z,51.08
2023-05-05T19:29:31.977Z,51.00
2023-05-05T19:31:58.508Z,51.34
2023-05-05T19:34:24.964Z,51.21
2023-05-05T19:36:51.409Z,51.31
2023-05-05T19:39:17.834Z,51.48
2023-05-05T19:41:44.730Z,51.43
2023-05-05T19:44:11.178Z,51.29
2023-05-05T19:46:37.746Z,51.39
2023-05-05T19:49:04.330Z,51.42
2023-05-05T19:51:31.771Z,51.37
2023-05-05T19:53:59.421Z,51.33
2023-05-05T19:56:26.195Z,51.15
2023-05-05T19:58:54.594Z,51.23
2023-05-05T20:01:21.209Z,51.34
2023-05-05T20:03:47.807Z,51.45
2023-05-05T20:06:14.376Z,51.22
2023-05-05T20:08:40.832Z,50.85
2023-05-05T20:11:07.278Z,51.25
2023-05-05T20:13:34.350Z,51.30
2023-05-05T20:16:00.924Z,51.33
2023-05-05T20:18:27.442Z,51.21
2023-05-05T20:20:53.895Z,51.31
2023-05-05T20:23:20.320Z,51.39
2023-05-05T20:25:46.757Z,51.34
2023-05-05T20:28:13.194Z,51.44
2023-05-05T20:30:39.628Z,51.50
2023-05-05T20:33:06.078Z,51.60
2023-05-05T20:35:32.524Z,51.34
2023-05-05T20:37:58.957Z,51.76
2023-05-05T20:40:25.562Z,51.62
2023-05-05T20:42:51.963Z,51.86
2023-05-05T20:45:18.525Z,51.70
2023-05-05T20:47:44.976Z,51.81
2023-05-05T20:50:11.917Z,52.10
2023-05-05T20:52:38.492Z,52.20
2023-05-05T20:55:05.334Z,52.24
2023-05-05T20:57:31.758Z,52.11
2023-05-05T20:59:58.264Z,52.14
2023-05-05T21:02:24.922Z,52.13
2023-05-05T21:04:54.600Z,51.87
2023-05-05T21:07:21.044Z,52.14
2023-05-05T21:09:47.680Z,52.11
2023-05-05T21:12:14.101Z,52.22
2023-05-05T21:14:45.123Z,52.39
2023-05-05T21:17:11.535Z,52.32
2023-05-05T21:19:37.975Z,52.50
2023-05-05T21:22:07.460Z,52.26
2023-05-05T21:24:33.901Z,52.48
2023-05-05T21:27:00.425Z,52.42
2023-05-05T21:29:26.868Z,52.58
2023-05-05T21:31:53.390Z,52.70
2023-05-05T21:34:20.306Z,52.71
2023-05-05T21:36:46.702Z,52.76
2023-05-05T21:39:13.165Z,52.67
2023-05-05T21:41:39.666Z,52.88
2023-05-05T21:44:06.088Z,52.91
2023-05-05T21:46:32.547Z,52.58
2023-05-05T21:48:59.016Z,52.76
2023-05-05T21:51:25.628Z,52.82
2023-05-05T21:53:52.066Z,52.78
2023-05-05T21:56:18.523Z,52.96
2023-05-05T21:58:44.985Z,53.09
2023-05-05T22:01:11.956Z,53.14
2023-05-05T22:03:38.616Z,53.27
2023-05-05T22:06:05.419Z,53.41
2023-05-05T22:08:31.850Z,53.22
2023-05-05T22:10:58.279Z,53.24
2023-05-05T22:13:24.763Z,53.24
2023-05-05T22:15:51.308Z,53.27
2023-05-05T22:18:17.817Z,53.29
2023-05-05T22:20:44.527Z,53.29
2023-05-05T22:23:11.106Z,53.26
2023-05-05T22:25:37.570Z,53.24
2023-05-05T22:28:04.236Z,53.18
2023-05-05T22:30:30.748Z,53.30
2023-05-05T22:32:57.400Z,53.34
2023-05-05T22:35:24.467Z,53.35
2023-05-05T22:37:50.939Z,53.37
2023-05-05T22:40:17.523Z,53.43
2023-05-05T22:42:43.997Z,53.40
2023-05-05T22:45:10.981Z,53.32
2023-05-05T22:47:37.787Z,53.51
2023-05-05T22:50:04.673Z,53.25
2023-05-05T22:52:31.461Z,53.53
2023-05-05T22:54:57.885Z,53.59
2023-05-05T22:57:24.422Z,53.43
2023-05-05T22:59:51.173Z,53.50
2023-05-05T23:02:17.702Z,53.48
2023-05-05T23:04:44.940Z,53.42
2023-05-05T23:07:12.512Z,53.62
2023-05-05T23:09:39.065Z,53.50
2023-05-05T23:12:05.666Z,53.64
2023-05-05T23:14:32.167Z,53.69
2023-05-05T23:16:58.761Z,53.57
2023-05-05T23:19:25.361Z,53.80
2023-05-05T23:21:53.664Z,53.76
2023-05-05T23:24:21.955Z,53.60
2023-05-05T23:26:48.818Z,53.53
2023-05-05T23:29:15.238Z,53.62
2023-05-05T23:31:41.894Z,53.68
2023-05-05T23:34:08.444Z,53.76
2023-05-05T23:36:34.970Z,53.78
2023-05-05T23:39:01.490Z,53.86
2023-05-05T23:41:27.930Z,53.78
2023-05-05T23:43:54.323Z,53.91
2023-05-05T23:46:20.780Z,53.98
2023-05-05T23:48:47.231Z,53.75
2023-05-05T23:51:13.661Z,53.84
2023-05-05T23:53:40.091Z,54.04
2023-05-05T23:56:07.239Z,53.76
2023-05-05T23:58:33.830Z,53.90
